Time;durP1;ratioP1;P1;durP2;ratioP2;P2;SDS_P1;SDS_P2;PMS_P1;PMS_P2;Temp;Humidity;BMP_temperature;BMP_pressure;BME280_temperature;BME280_humidity;BME280_pressure;Samples;Min_cycle;Max_cycle;Signal;HPM_P1;HPM_P2
2024/02/28 00:00:10;;;;;;;8.68;4.95;;;6.60;99.90;;;;;;5034770;28;20032;-89
2024/02/28 00:02:36;;;;;;;6.47;4.65;;;6.60;99.90;;;;;;5052854;28;20091;-89
2024/02/28 00:05:02;;;;;;;5.68;4.15;;;6.60;99.90;;;;;;5045137;28;20025;-89
2024/02/28 00:07:27;;;;;;;5.82;4.80;;;6.70;99.90;;;;;;5033697;28;20028;-89
2024/02/28 00:09:57;;;;;;;6.28;4.88;;;6.60;99.90;;;;;;5032552;28;20052;-89
2024/02/28 00:12:26;;;;;;;7.38;4.50;;;6.50;99.90;;;;;;5033385;28;20022;-89
2024/02/28 00:14:51;;;;;;;6.80;4.68;;;6.60;99.90;;;;;;5033164;28;20026;-90
2024/02/28 00:17:17;;;;;;;7.00;4.40;;;6.50;99.90;;;;;;5033014;28;20026;-89
2024/02/28 00:19:42;;;;;;;7.03;4.68;;;6.50;99.90;;;;;;5033002;28;20083;-88
2024/02/28 00:22:09;;;;;;;5.70;4.50;;;6.50;99.90;;;;;;5033404;28;20033;-88
2024/02/28 00:24:35;;;;;;;7.32;4.50;;;6.50;99.90;;;;;;5032669;28;20077;-87
2024/02/28 00:27:00;;;;;;;8.40;4.85;;;6.50;99.90;;;;;;5032874;28;20021;-87
2024/02/28 00:29:26;;;;;;;11.52;5.30;;;6.50;99.90;;;;;;5036359;28;20420;-88
2024/02/28 00:31:52;;;;;;;6.63;5.03;;;6.50;99.90;;;;;;5032459;28;20300;-89
2024/02/28 00:34:18;;;;;;;7.18;4.40;;;6.40;99.90;;;;;;5040829;28;20033;-89
2024/02/28 00:36:43;;;;;;;4.63;4.22;;;6.40;99.90;;;;;;5049424;28;20024;-87
2024/02/28 00:39:10;;;;;;;8.20;4.22;;;6.40;99.90;;;;;;5051983;28;20033;-88
2024/02/28 00:41:35;;;;;;;6.45;4.40;;;6.40;99.90;;;;;;5036051;28;20436;-89
2024/02/28 00:44:03;;;;;;;6.43;4.43;;;6.40;99.90;;;;;;5032765;28;20018;-88
2024/02/28 00:46:28;;;;;;;4.63;4.22;;;6.40;99.90;;;;;;5033042;28;20528;-89
2024/02/28 00:48:54;;;;;;;5.53;4.18;;;6.40;99.90;;;;;;5037253;28;20033;-91
2024/02/28 00:51:19;;;;;;;4.80;4.30;;;6.30;99.90;;;;;;5052516;28;20415;-89
2024/02/28 00:53:45;;;;;;;5.43;4.82;;;6.30;99.90;;;;;;5052778;28;20595;-90
2024/02/28 00:56:10;;;;;;;6.63;4.40;;;6.30;99.90;;;;;;5047017;28;20025;-89
2024/02/28 00:58:36;;;;;;;8.60;5.22;;;6.30;99.90;;;;;;5055146;28;20025;-88
2024/02/28 01:01:02;;;;;;;7.28;4.50;;;6.30;99.90;;;;;;5056249;28;20394;-89
2024/02/28 01:03:27;;;;;;;4.93;4.43;;;6.30;99.90;;;;;;5045923;28;20104;-89
2024/02/28 01:05:53;;;;;;;5.18;4.32;;;6.30;99.90;;;;;;5051799;28;20033;-88
2024/02/28 01:08:18;;;;;;;10.15;4.63;;;6.30;99.90;;;;;;5048497;28;20040;-89
2024/02/28 01:10:44;;;;;;;6.80;4.15;;;6.30;99.90;;;;;;5049256;28;20056;-88
2024/02/28 01:13:10;;;;;;;9.60;4.75;;;6.30;99.90;;;;;;5035958;28;20025;-88
2024/02/28 01:15:35;;;;;;;6.38;4.80;;;6.20;99.90;;;;;;5036175;28;20032;-88
2024/02/28 01:18:01;;;;;;;5.00;4.28;;;6.20;99.90;;;;;;5036964;28;20022;-88
2024/02/28 01:20:26;;;;;;;15.48;5.43;;;6.20;99.90;;;;;;5040213;28;20104;-89
2024/02/28 01:22:52;;;;;;;6.72;4.22;;;6.20;99.90;;;;;;5053896;28;20107;-90
2024/02/28 01:25:18;;;;;;;5.88;3.92;;;6.20;99.90;;;;;;5054831;28;20132;-86
2024/02/28 01:27:44;;;;;;;11.00;4.40;;;6.10;99.90;;;;;;5055429;28;20025;-88
2024/02/28 01:30:10;;;;;;;5.72;4.05;;;6.10;99.90;;;;;;5051348;28;20120;-87
2024/02/28 01:32:36;;;;;;;6.00;4.05;;;6.10;99.90;;;;;;5055368;28;20119;-89
2024/02/28 01:35:03;;;;;;;11.13;5.28;;;6.00;99.90;;;;;;5042184;28;20112;-88
2024/02/28 01:37:28;;;;;;;9.05;4.35;;;6.10;99.90;;;;;;5038000;28;20051;-88
2024/02/28 01:39:54;;;;;;;8.85;4.28;;;6.10;99.90;;;;;;5037993;28;20108;-88
2024/02/28 01:42:19;;;;;;;6.13;4.28;;;6.00;99.90;;;;;;5055898;28;20477;-88
2024/02/28 01:44:48;;;;;;;6.57;4.50;;;6.00;99.90;;;;;;5055170;28;20025;-88
2024/02/28 01:47:14;;;;;;;5.55;4.35;;;6.00;99.90;;;;;;5053970;28;20049;-87
2024/02/28 01:49:42;;;;;;;7.53;4.18;;;6.00;99.90;;;;;;5044534;28;20037;-88
2024/02/28 01:52:08;;;;;;;4.85;3.97;;;6.00;99.90;;;;;;5050922;28;20025;-88
2024/02/28 01:54:35;;;;;;;5.07;4.30;;;6.00;99.90;;;;;;5035569;28;20148;-88
2024/02/28 01:57:01;;;;;;;7.20;4.45;;;5.90;99.90;;;;;;5036199;28;20083;-88
2024/02/28 01:59:28;;;;;;;6.43;4.10;;;6.00;99.90;;;;;;5034880;28;20434;-88
2024/02/28 02:01:54;;;;;;;9.70;4.25;;;6.00;99.90;;;;;;5033875;28;20036;-87
2024/02/28 02:04:20;;;;;;;6.15;4.10;;;5.90;99.90;;;;;;5034996;28;20021;-89
2024/02/28 02:06:47;;;;;;;5.53;4.22;;;5.90;99.90;;;;;;5040808;28;20040;-88
2024/02/28 02:09:13;;;;;;;5.85;5.10;;;5.90;99.90;;;;;;5053127;28;20062;-86
2024/02/28 02:11:39;;;;;;;6.88;4.30;;;6.00;99.90;;;;;;5048108;28;20033;-89
2024/02/28 02:14:05;;;;;;;6.35;4.88;;;6.00;99.90;;;;;;5055131;28;20053;-87
2024/02/28 02:16:30;;;;;;;5.10;4.55;;;5.90;99.90;;;;;;5043276;28;20103;-88
2024/02/28 02:18:56;;;;;;;8.63;4.80;;;5.90;99.90;;;;;;5034678;28;20033;-88
2024/02/28 02:21:31;;;;;;;9.68;4.70;;;6.00;99.90;;;;;;5035076;28;20030;-88
2024/02/28 02:23:56;;;;;;;6.15;4.53;;;5.90;99.90;;;;;;5033998;28;20045;-88
2024/02/28 02:26:22;;;;;;;5.68;5.18;;;5.90;99.90;;;;;;5040560;28;20381;-88
2024/02/28 02:28:48;;;;;;;5.40;4.90;;;5.90;99.90;;;;;;5034030;28;20087;-88
2024/02/28 02:31:14;;;;;;;6.05;5.30;;;5.90;99.90;;;;;;5032958;28;20075;-88
2024/02/28 02:33:39;;;;;;;6.95;6.28;;;5.90;99.90;;;;;;5034609;28;20076;-88
2024/02/28 02:36:05;;;;;;;9.48;6.57;;;5.90;99.90;;;;;;5034113;28;20022;-87
2024/02/28 02:38:30;;;;;;;9.40;5.78;;;5.90;99.90;;;;;;5034818;28;20066;-88
2024/02/28 02:40:56;;;;;;;9.35;6.28;;;5.90;99.90;;;;;;5036711;28;20036;-88
2024/02/28 02:43:22;;;;;;;19.40;6.53;;;5.90;99.90;;;;;;5032368;28;20532;-88
2024/02/28 02:45:47;;;;;;;12.68;6.13;;;5.90;99.90;;;;;;5033660;28;20108;-88
2024/02/28 02:48:13;;;;;;;7.03;6.32;;;5.90;99.90;;;;;;5049526;28;20497;-87
2024/02/28 02:50:38;;;;;;;8.63;7.40;;;5.90;99.90;;;;;;5034767;28;20122;-87
2024/02/28 02:53:04;;;;;;;14.75;7.75;;;5.90;99.90;;;;;;5053860;28;20021;-88
2024/02/28 02:55:30;;;;;;;13.55;8.65;;;5.90;99.90;;;;;;5045791;28;20477;-87
2024/02/28 02:57:55;;;;;;;11.80;7.38;;;5.90;99.90;;;;;;5032401;28;20090;-88
2024/02/28 03:00:22;;;;;;;11.18;7.53;;;5.90;99.90;;;;;;5039344;28;20028;-88
2024/02/28 03:02:47;;;;;;;8.40;7.50;;;6.00;99.90;;;;;;5033585;28;20029;-88
2024/02/28 03:05:13;;;;;;;13.23;7.90;;;6.00;99.90;;;;;;5049709;28;20040;-87
2024/02/28 03:07:39;;;;;;;17.67;8.30;;;6.00;99.90;;;;;;5047197;28;20100;-88
2024/02/28 03:10:05;;;;;;;14.02;8.75;;;6.00;99.90;;;;;;5035523;28;20431;-88
2024/02/28 03:12:31;;;;;;;10.02;8.48;;;6.00;99.90;;;;;;5033264;28;20021;-89
2024/02/28 03:14:57;;;;;;;17.52;9.27;;;5.90;99.90;;;;;;5034302;28;20044;-88
2024/02/28 03:17:22;;;;;;;14.95;9.75;;;5.90;99.90;;;;;;5033851;28;20087;-89
2024/02/28 03:19:48;;;;;;;11.35;9.43;;;5.90;99.90;;;;;;5032467;28;20026;-89
2024/02/28 03:22:14;;;;;;;17.45;9.88;;;5.90;99.90;;;;;;5040395;28;20033;-88
2024/02/28 03:24:39;;;;;;;10.70;9.43;;;5.90;99.90;;;;;;5044921;28;20065;-87
2024/02/28 03:27:05;;;;;;;15.15;10.00;;;5.90;99.90;;;;;;5049803;28;20056;-86
2024/02/28 03:29:30;;;;;;;13.60;9.40;;;5.90;99.90;;;;;;5053782;28;20082;-86
2024/02/28 03:31:58;;;;;;;11.60;10.23;;;5.90;99.90;;;;;;5052055;28;20032;-87
2024/02/28 03:34:23;;;;;;;13.30;9.60;;;5.90;99.90;;;;;;5053219;28;20115;-87
2024/02/28 03:36:49;;;;;;;16.90;9.68;;;6.00;99.90;;;;;;5051527;28;20112;-88
2024/02/28 03:39:15;;;;;;;13.40;9.85;;;6.00;99.90;;;;;;5032629;28;20034;-88
2024/02/28 03:41:40;;;;;;;14.02;9.75;;;6.00;99.90;;;;;;5034911;28;20512;-87
2024/02/28 03:44:06;;;;;;;15.98;9.82;;;6.00;99.90;;;;;;5043694;28;20124;-87
2024/02/28 03:46:32;;;;;;;15.48;9.93;;;6.10;99.90;;;;;;5046605;28;20172;-87
2024/02/28 03:48:57;;;;;;;16.02;10.25;;;6.00;99.90;;;;;;5031475;28;20076;-87
2024/02/28 03:51:23;;;;;;;13.70;10.18;;;6.10;99.90;;;;;;5036709;28;20519;-88
2024/02/28 03:53:49;;;;;;;15.95;11.30;;;6.10;99.90;;;;;;5037346;28;20136;-87
2024/02/28 03:56:25;;;;;;;15.07;11.10;;;6.00;99.90;;;;;;5038355;28;20108;-87
2024/02/28 03:58:51;;;;;;;13.43;10.25;;;6.10;99.90;;;;;;5040489;28;20075;-86
2024/02/28 04:01:17;;;;;;;17.50;10.05;;;6.00;99.90;;;;;;5047061;28;20023;-88
2024/02/28 04:03:43;;;;;;;18.20;10.13;;;6.10;99.90;;;;;;5036812;28;20116;-87
2024/02/28 04:06:08;;;;;;;17.35;10.23;;;6.10;99.90;;;;;;5052509;28;20021;-88
2024/02/28 04:08:34;;;;;;;16.27;10.30;;;6.10;99.90;;;;;;5040372;28;20091;-87
2024/02/28 04:11:00;;;;;;;16.35;9.73;;;6.10;99.90;;;;;;5042924;28;20116;-87
2024/02/28 04:13:25;;;;;;;14.60;9.98;;;6.10;99.90;;;;;;5045398;28;20098;-87
2024/02/28 04:15:51;;;;;;;13.48;10.52;;;6.10;99.90;;;;;;5047783;28;20025;-87
2024/02/28 04:18:17;;;;;;;12.45;9.65;;;6.20;99.90;;;;;;5032658;28;20539;-86
2024/02/28 04:20:43;;;;;;;14.68;10.55;;;6.20;99.90;;;;;;5036831;28;20025;-87
2024/02/28 04:23:08;;;;;;;15.43;10.35;;;6.20;99.90;;;;;;5052033;28;20071;-87
2024/02/28 04:25:35;;;;;;;17.42;9.55;;;6.20;99.90;;;;;;5049640;28;20033;-87
2024/02/28 04:28:01;;;;;;;18.48;10.55;;;6.20;99.90;;;;;;5048939;28;20609;-87
2024/02/28 04:30:27;;;;;;;18.45;9.95;;;6.20;99.90;;;;;;5043571;28;20034;-87
2024/02/28 04:32:53;;;;;;;16.50;10.30;;;6.20;99.90;;;;;;5033896;28;20393;-88
2024/02/28 04:35:19;;;;;;;16.92;10.32;;;6.20;99.90;;;;;;5040661;28;20021;-89
2024/02/28 04:37:46;;;;;;;17.27;11.48;;;6.20;99.90;;;;;;5056178;28;20162;-89
2024/02/28 04:40:12;;;;;;;16.60;11.23;;;6.30;99.90;;;;;;5056365;28;20020;-89
2024/02/28 04:42:39;;;;;;;19.33;11.65;;;6.20;99.90;;;;;;5056334;28;20086;-89
2024/02/28 04:45:04;;;;;;;14.55;10.75;;;6.20;99.90;;;;;;5054623;28;20495;-87
2024/02/28 04:47:30;;;;;;;17.52;10.68;;;6.20;99.90;;;;;;5038559;28;20049;-88
2024/02/28 04:49:56;;;;;;;20.02;12.52;;;6.20;99.90;;;;;;5036015;28;20061;-89
2024/02/28 04:52:22;;;;;;;16.13;12.18;;;6.20;99.90;;;;;;5037870;28;20071;-89
2024/02/28 04:54:47;;;;;;;16.48;11.65;;;6.20;99.90;;;;;;5037589;28;20029;-89
2024/02/28 04:57:13;;;;;;;16.48;11.68;;;6.20;99.90;;;;;;5035941;28;20028;-89
2024/02/28 04:59:38;;;;;;;21.17;13.10;;;6.20;99.90;;;;;;5036781;28;20033;-90
2024/02/28 05:02:05;;;;;;;19.25;11.95;;;6.20;99.90;;;;;;5053445;28;20063;-89
2024/02/28 05:04:30;;;;;;;16.55;11.88;;;6.30;99.90;;;;;;5056399;28;20021;-90
2024/02/28 05:06:56;;;;;;;16.95;11.73;;;6.30;99.90;;;;;;5056488;28;20032;-85
2024/02/28 05:09:21;;;;;;;22.38;12.90;;;6.30;99.90;;;;;;5048123;28;20128;-87
2024/02/28 05:11:47;;;;;;;16.45;11.85;;;6.20;99.90;;;;;;5049328;28;20039;-87
2024/02/28 05:14:12;;;;;;;14.63;12.15;;;6.20;99.90;;;;;;5055427;28;20098;-88
2024/02/28 05:16:38;;;;;;;17.45;11.73;;;6.30;99.90;;;;;;5053476;28;20078;-88
2024/02/28 05:19:04;;;;;;;15.50;12.30;;;6.30;99.90;;;;;;5049927;28;20029;-89
2024/02/28 05:21:30;;;;;;;21.20;13.32;;;5.90;99.90;;;;;;5048891;28;20036;-88
2024/02/28 05:23:55;;;;;;;15.43;12.50;;;6.30;99.90;;;;;;5054297;28;20033;-89
2024/02/28 05:26:21;;;;;;;15.73;12.10;;;6.30;99.90;;;;;;5049631;28;20071;-91
2024/02/28 05:28:46;;;;;;;17.77;12.10;;;6.30;99.90;;;;;;5056010;28;20091;-89
2024/02/28 05:31:26;;;;;;;18.33;12.18;;;6.30;99.90;;;;;;5054317;28;20381;-85
2024/02/28 05:33:54;;;;;;;24.20;11.82;;;6.30;99.90;;;;;;5049196;28;20583;-88
2024/02/28 05:36:20;;;;;;;20.73;12.23;;;6.40;99.90;;;;;;5055691;28;20045;-89
2024/02/28 05:38:46;;;;;;;14.25;11.50;;;6.30;99.90;;;;;;5043036;28;20029;-89
2024/02/28 05:41:11;;;;;;;19.30;11.80;;;6.40;99.90;;;;;;5047811;28;20428;-89
2024/02/28 05:43:38;;;;;;;16.20;12.07;;;6.30;99.90;;;;;;5053262;28;20083;-89
2024/02/28 05:46:03;;;;;;;22.27;11.45;;;6.40;99.90;;;;;;5045241;28;20397;-89
2024/02/28 05:48:29;;;;;;;20.98;11.32;;;6.40;99.90;;;;;;5035547;28;20125;-90
2024/02/28 05:50:55;;;;;;;12.85;11.25;;;6.40;99.90;;;;;;5042246;28;20017;-88
2024/02/28 05:53:20;;;;;;;20.75;13.07;;;6.40;99.90;;;;;;5055154;28;20043;-89
2024/02/28 05:55:46;;;;;;;14.93;11.25;;;6.40;99.90;;;;;;5050620;28;20013;-90
2024/02/28 05:58:13;;;;;;;14.18;11.73;;;6.40;99.90;;;;;;5055889;28;20040;-89
2024/02/28 06:00:39;;;;;;;24.63;13.10;;;6.40;99.90;;;;;;5052853;28;20024;-90
2024/02/28 06:03:05;;;;;;;19.13;12.48;;;6.40;99.90;;;;;;5055523;28;20112;-89
2024/02/28 06:05:30;;;;;;;19.98;12.52;;;6.40;99.90;;;;;;5055216;28;20055;-89
2024/02/28 06:07:56;;;;;;;17.15;12.15;;;6.40;99.90;;;;;;5043548;28;20029;-88
2024/02/28 06:10:22;;;;;;;15.32;12.82;;;6.40;99.90;;;;;;5047999;28;20450;-88
2024/02/28 06:12:47;;;;;;;15.80;12.30;;;6.40;99.90;;;;;;5047809;28;20052;-89
2024/02/28 06:15:13;;;;;;;16.33;11.35;;;6.40;99.90;;;;;;5047521;28;20496;-87
2024/02/28 06:17:39;;;;;;;19.35;13.00;;;6.40;99.90;;;;;;5044593;28;20389;-87
2024/02/28 06:20:06;;;;;;;18.67;12.45;;;6.40;99.90;;;;;;5040233;28;20033;-87
2024/02/28 06:22:31;;;;;;;15.73;12.57;;;6.50;99.90;;;;;;5047457;28;20078;-88
2024/02/28 06:24:57;;;;;;;19.02;12.70;;;6.50;99.90;;;;;;5046379;28;20025;-87
2024/02/28 06:27:22;;;;;;;20.23;13.27;;;6.50;99.90;;;;;;5042763;28;20044;-88
2024/02/28 06:29:49;;;;;;;22.63;13.20;;;6.50;99.90;;;;;;5042742;28;20082;-88
2024/02/28 06:32:14;;;;;;;21.27;13.43;;;6.50;99.90;;;;;;5046764;28;20447;-88
2024/02/28 06:34:41;;;;;;;16.55;12.93;;;6.50;99.90;;;;;;5050309;28;20025;-88
2024/02/28 06:37:07;;;;;;;20.38;12.73;;;6.50;99.90;;;;;;5036136;28;20079;-91
2024/02/28 06:39:33;;;;;;;26.35;12.85;;;6.50;99.90;;;;;;5049611;28;20025;-91
2024/02/28 06:41:58;;;;;;;18.73;13.10;;;6.60;99.90;;;;;;5040318;28;20033;-92
2024/02/28 06:44:24;;;;;;;19.02;13.73;;;6.60;99.90;;;;;;5049802;28;20443;-91
2024/02/28 06:46:50;;;;;;;19.55;13.15;;;6.60;99.90;;;;;;5046601;28;20451;-90
2024/02/28 06:49:15;;;;;;;21.63;14.65;;;6.50;99.90;;;;;;5047855;28;20049;-91
2024/02/28 06:51:43;;;;;;;20.58;12.90;;;6.50;99.90;;;;;;5051789;28;20021;-90
2024/02/28 06:54:10;;;;;;;20.23;13.35;;;6.50;99.90;;;;;;5046312;28;20048;-90
2024/02/28 06:56:36;;;;;;;22.73;13.98;;;6.50;99.90;;;;;;5048989;28;20488;-92
2024/02/28 06:59:01;;;;;;;16.27;13.02;;;6.50;99.90;;;;;;5050301;28;20468;-90
2024/02/28 07:01:27;;;;;;;17.73;14.13;;;6.60;99.90;;;;;;5046252;28;20025;-91
2024/02/28 07:03:52;;;;;;;20.33;14.30;;;6.60;99.90;;;;;;5045226;28;20036;-91
2024/02/28 07:06:18;;;;;;;22.85;15.07;;;6.60;99.90;;;;;;5043463;28;20029;-90
2024/02/28 07:08:44;;;;;;;22.25;13.70;;;6.60;99.90;;;;;;5040118;28;20033;-91
2024/02/28 07:11:15;;;;;;;19.48;13.40;;;6.60;99.90;;;;;;5045883;28;20485;-90
2024/02/28 07:13:41;;;;;;;20.00;13.45;;;6.60;99.90;;;;;;5044808;28;20449;-91
2024/02/28 07:16:07;;;;;;;21.55;14.50;;;6.60;99.90;;;;;;5045753;28;20029;-89
2024/02/28 07:18:33;;;;;;;20.98;12.55;;;6.60;99.90;;;;;;5038659;28;20028;-88
2024/02/28 07:20:59;;;;;;;23.40;13.43;;;6.60;99.90;;;;;;5036834;28;20523;-93
2024/02/28 07:23:25;;;;;;;26.13;13.07;;;6.70;99.90;;;;;;5048230;28;20033;-92
2024/02/28 07:25:50;;;;;;;20.25;13.00;;;6.70;99.90;;;;;;5039195;28;20104;-91
2024/02/28 07:28:16;;;;;;;29.23;13.85;;;6.70;99.90;;;;;;5035230;28;20036;-91
2024/02/28 07:30:43;;;;;;;25.98;13.73;;;6.70;99.90;;;;;;5037491;28;20493;-90
2024/02/28 07:33:09;;;;;;;20.73;13.85;;;6.70;99.90;;;;;;5045165;28;20100;-91
2024/02/28 07:35:44;;;;;;;19.80;13.02;;;6.70;99.90;;;;;;5040575;28;20025;-90
2024/02/28 07:38:10;;;;;;;22.27;13.20;;;6.80;99.90;;;;;;5033021;28;20032;-91
2024/02/28 07:40:36;;;;;;;23.08;14.27;;;6.80;99.90;;;;;;5040894;28;20179;-89
2024/02/28 07:43:01;;;;;;;23.95;13.57;;;6.80;99.90;;;;;;5048485;28;20021;-87
2024/02/28 07:45:27;;;;;;;19.20;13.02;;;6.80;99.90;;;;;;5047202;28;20083;-89
2024/02/28 07:47:52;;;;;;;20.05;13.90;;;6.80;99.90;;;;;;5033817;28;20053;-91
2024/02/28 07:50:18;;;;;;;25.77;14.40;;;6.80;99.90;;;;;;5037346;28;20095;-89
2024/02/28 07:52:43;;;;;;;23.50;13.43;;;6.80;99.90;;;;;;5033006;28;20033;-90
2024/02/28 07:55:09;;;;;;;21.65;14.40;;;6.90;99.90;;;;;;5036025;28;20027;-93
2024/02/28 07:57:34;;;;;;;21.02;13.30;;;6.80;99.90;;;;;;5043861;28;20067;-91
2024/02/28 08:00:00;;;;;;;23.50;13.70;;;6.90;99.90;;;;;;5046724;28;20052;-91
2024/02/28 08:02:26;;;;;;;23.83;13.98;;;6.80;99.90;;;;;;5042375;28;20412;-92
2024/02/28 08:04:51;;;;;;;14.60;12.70;;;6.80;99.90;;;;;;5051577;28;20524;-89
2024/02/28 08:07:17;;;;;;;20.05;13.93;;;6.80;99.90;;;;;;5034511;28;20029;-89
2024/02/28 08:09:42;;;;;;;23.38;15.10;;;6.90;99.90;;;;;;5050127;28;20036;-89
2024/02/28 08:12:08;;;;;;;21.08;14.80;;;6.90;99.90;;;;;;5050399;28;20078;-89
2024/02/28 08:14:33;;;;;;;23.13;14.95;;;6.90;99.90;;;;;;5043959;28;20112;-90
2024/02/28 08:16:59;;;;;;;22.40;14.05;;;6.90;99.90;;;;;;5043725;28;20422;-90
2024/02/28 08:19:24;;;;;;;21.85;14.40;;;6.90;99.90;;;;;;5050335;28;20546;-88
2024/02/28 08:21:50;;;;;;;18.52;13.88;;;6.80;99.90;;;;;;5041130;28;20181;-89
2024/02/28 08:24:16;;;;;;;22.58;15.95;;;6.90;99.90;;;;;;5038957;28;20033;-90
2024/02/28 08:26:42;;;;;;;21.70;14.52;;;6.90;99.90;;;;;;5040894;28;20044;-91
2024/02/28 08:29:08;;;;;;;23.25;15.35;;;6.90;99.90;;;;;;5047321;28;20279;-87
2024/02/28 08:31:39;;;;;;;20.52;13.82;;;6.90;99.90;;;;;;5046064;28;20033;-91
2024/02/28 08:34:06;;;;;;;;;;;6.90;99.90;;;;;;5034043;28;20029;-90
2024/02/28 08:36:31;;;;;;;20.45;13.43;;;7.10;99.90;;;;;;5032429;28;19905;-89
2024/02/28 08:38:57;;;;;;;20.75;14.20;;;7.00;99.90;;;;;;5033076;28;20091;-90
2024/02/28 08:41:23;;;;;;;21.38;13.27;;;6.90;99.90;;;;;;5047265;28;20033;-88
2024/02/28 08:43:48;;;;;;;19.50;14.70;;;7.00;99.90;;;;;;5046727;28;20037;-91
2024/02/28 08:46:15;;;;;;;20.95;14.32;;;7.00;99.90;;;;;;5050042;28;20044;-88
2024/02/28 08:48:41;;;;;;;25.27;15.75;;;7.00;99.90;;;;;;5032022;28;20045;-88
2024/02/28 08:51:07;;;;;;;29.60;15.38;;;6.80;99.90;;;;;;5038303;28;20031;-88
2024/02/28 08:53:33;;;;;;;26.35;14.40;;;7.00;99.90;;;;;;5053300;28;20025;-89
2024/02/28 08:55:58;;;;;;;28.45;15.07;;;7.00;99.90;;;;;;5041193;28;20018;-88
2024/02/28 08:58:24;;;;;;;21.92;15.48;;;7.00;99.90;;;;;;5033225;28;20110;-89
2024/02/28 09:00:49;;;;;;;21.10;15.52;;;7.10;99.90;;;;;;5042151;28;20025;-88
2024/02/28 09:03:15;;;;;;;28.23;16.13;;;7.10;99.90;;;;;;5049150;28;20033;-88
2024/02/28 09:05:41;;;;;;;25.35;15.98;;;8.10;99.90;;;;;;5032812;28;20166;-88
2024/02/28 09:08:06;;;;;;;26.17;15.60;;;7.20;99.90;;;;;;5050516;28;20099;-89
2024/02/28 09:10:34;;;;;;;27.63;16.73;;;7.30;99.90;;;;;;5042404;28;20028;-89
2024/02/28 09:13:00;;;;;;;29.10;16.88;;;7.30;99.90;;;;;;5032097;28;20017;-86
2024/02/28 09:15:25;;;;;;;23.65;15.43;;;7.40;99.90;;;;;;5031946;28;20041;-87
2024/02/28 09:17:51;;;;;;;28.95;14.93;;;7.40;99.90;;;;;;5032020;28;20022;-87
2024/02/28 09:20:17;;;;;;;28.65;16.70;;;7.50;99.90;;;;;;5051592;28;20032;-88
2024/02/28 09:22:42;;;;;;;25.98;16.00;;;7.50;99.90;;;;;;5055797;28;20116;-88
2024/02/28 09:25:08;;;;;;;25.48;15.90;;;7.50;99.90;;;;;;5041321;28;20043;-87
2024/02/28 09:27:35;;;;;;;27.33;15.73;;;7.50;99.90;;;;;;5046563;28;20033;-87
2024/02/28 09:30:01;;;;;;;25.35;15.98;;;7.60;99.90;;;;;;5049986;28;20043;-87
2024/02/28 09:32:27;;;;;;;23.13;16.83;;;7.80;99.90;;;;;;5055453;28;20025;-88
2024/02/28 09:34:52;;;;;;;23.10;16.75;;;7.60;99.90;;;;;;5055573;28;20037;-88
2024/02/28 09:37:20;;;;;;;21.05;15.85;;;7.60;99.90;;;;;;5048130;28;20021;-87
2024/02/28 09:39:45;;;;;;;29.67;17.40;;;7.70;99.90;;;;;;5039508;28;20033;-88
2024/02/28 09:42:11;;;;;;;25.30;16.80;;;7.70;99.90;;;;;;5050450;28;20032;-86
2024/02/28 09:44:37;;;;;;;28.70;16.98;;;7.70;99.90;;;;;;5050416;28;20032;-86
2024/02/28 09:47:04;;;;;;;31.83;17.27;;;7.70;99.90;;;;;;5042322;28;20042;-88
2024/02/28 09:49:31;;;;;;;28.55;17.58;;;7.70;99.90;;;;;;5046325;28;20086;-88
2024/02/28 09:51:58;;;;;;;27.02;17.25;;;7.70;99.90;;;;;;5042299;28;20022;-87
2024/02/28 09:54:23;;;;;;;27.00;17.20;;;7.80;99.90;;;;;;5041735;28;20124;-84
2024/02/28 09:56:50;;;;;;;23.25;17.30;;;8.40;99.90;;;;;;5067206;28;20162;-82
2024/02/28 09:59:18;;;;;;;27.52;17.27;;;7.80;99.90;;;;;;5063202;28;20078;-89
2024/02/28 10:01:47;;;;;;;31.35;17.90;;;7.90;99.90;;;;;;5053931;28;20024;-88
2024/02/28 10:04:13;;;;;;;27.13;18.05;;;7.90;99.90;;;;;;5053266;28;20044;-88
2024/02/28 10:06:40;;;;;;;28.45;17.20;;;8.00;99.90;;;;;;5053360;28;20025;-89
2024/02/28 10:09:07;;;;;;;26.67;16.98;;;8.00;99.90;;;;;;5046221;28;20053;-88
2024/02/28 10:11:33;;;;;;;27.75;18.30;;;8.00;99.90;;;;;;5049953;28;20112;-88
2024/02/28 10:13:59;;;;;;;34.58;18.85;;;8.10;99.90;;;;;;5055099;28;20060;-88
2024/02/28 10:16:27;;;;;;;28.95;18.08;;;8.10;99.90;;;;;;5055878;28;20045;-88
2024/02/28 10:18:53;;;;;;;28.80;18.67;;;8.60;99.90;;;;;;5051171;28;20056;-89
2024/02/28 10:21:19;;;;;;;30.20;17.20;;;8.20;99.90;;;;;;5039772;28;20030;-88
2024/02/28 10:23:45;;;;;;;27.30;17.27;;;8.20;99.90;;;;;;5033619;28;20029;-89
2024/02/28 10:26:11;;;;;;;29.20;17.05;;;8.30;99.90;;;;;;5045133;28;20107;-89
2024/02/28 10:28:39;;;;;;;28.98;18.38;;;8.40;99.90;;;;;;5048651;28;20045;-88
2024/02/28 10:31:05;;;;;;;27.92;18.30;;;9.30;99.90;;;;;;5032054;28;20478;-87
2024/02/28 10:33:33;;;;;;;26.55;17.92;;;8.40;99.90;;;;;;5052344;28;20033;-88
2024/02/28 10:35:59;;;;;;;27.92;18.58;;;8.40;99.90;;;;;;5054281;28;20025;-89
2024/02/28 10:38:26;;;;;;;32.47;19.80;;;8.40;99.90;;;;;;5055033;28;20029;-88
2024/02/28 10:40:53;;;;;;;29.98;19.80;;;8.40;99.90;;;;;;5051149;28;20033;-89
2024/02/28 10:43:20;;;;;;;37.70;20.30;;;8.50;99.90;;;;;;5054513;28;20082;-89
2024/02/28 10:45:46;;;;;;;27.42;19.08;;;8.50;99.90;;;;;;5052582;28;20029;-89
2024/02/28 10:48:15;;;;;;;24.17;18.10;;;9.40;99.90;;;;;;5055235;28;20035;-89
2024/02/28 10:50:41;;;;;;;29.02;18.90;;;8.40;99.90;;;;;;5053316;28;20534;-82
2024/02/28 10:53:14;;;;;;;34.40;19.90;;;9.10;99.90;;;;;;5047062;28;20033;-82
2024/02/28 10:55:41;;;;;;;28.33;20.77;;;8.40;99.90;;;;;;5040106;28;20029;-81
2024/02/28 10:58:10;;;;;;;30.40;20.90;;;8.50;99.90;;;;;;5033826;28;20021;-86
2024/02/28 11:00:41;;;;;;;32.13;20.23;;;8.50;99.90;;;;;;5034776;28;20428;-89
2024/02/28 11:03:08;;;;;;;30.60;20.10;;;8.50;99.90;;;;;;5033651;28;20029;-85
2024/02/28 11:05:40;;;;;;;31.98;21.23;;;8.50;99.90;;;;;;5034201;28;20425;-85
2024/02/28 11:08:10;;;;;;;31.33;20.95;;;8.60;99.90;;;;;;5033995;28;20049;-85
2024/02/28 11:10:40;;;;;;;32.45;19.98;;;8.60;99.90;;;;;;5037500;28;20055;-85
2024/02/28 11:13:05;;;;;;;31.70;21.30;;;8.60;99.90;;;;;;5050857;28;20392;-85
2024/02/28 11:15:31;;;;;;;31.08;20.90;;;8.70;99.90;;;;;;5048525;28;20371;-84
2024/02/28 11:18:08;;;;;;;28.55;19.63;;;8.70;99.90;;;;;;5051680;28;20108;-90
2024/02/28 11:20:34;;;;;;;30.70;20.85;;;8.70;99.90;;;;;;5053200;28;20532;-85
2024/02/28 11:23:00;;;;;;;28.30;18.38;;;8.70;99.90;;;;;;5053924;28;20082;-88
2024/02/28 11:25:25;;;;;;;25.02;18.48;;;8.70;99.90;;;;;;5053138;28;20025;-87
2024/02/28 11:27:51;;;;;;;28.92;17.13;;;8.70;99.90;;;;;;5052014;28;20032;-87
2024/02/28 11:30:17;;;;;;;26.10;18.80;;;8.70;99.90;;;;;;5051961;28;20040;-85
2024/02/28 11:32:43;;;;;;;28.17;17.90;;;9.50;99.90;;;;;;5051705;28;20396;-86
2024/02/28 11:35:11;;;;;;;26.38;18.77;;;8.70;99.90;;;;;;5045947;28;20029;-86
2024/02/28 11:37:39;;;;;;;31.00;19.15;;;9.10;99.90;;;;;;5031861;28;20488;-88
2024/02/28 11:40:08;;;;;;;27.08;19.13;;;8.70;99.90;;;;;;5035996;28;20090;-86
2024/02/28 11:42:34;;;;;;;24.98;18.20;;;8.80;99.90;;;;;;5032825;28;20056;-89
2024/02/28 11:45:03;;;;;;;26.05;17.95;;;8.80;99.90;;;;;;5032321;28;20030;-88
2024/02/28 11:47:29;;;;;;;23.85;18.77;;;8.90;99.90;;;;;;5040567;28;20053;-92
2024/02/28 11:49:58;;;;;;;26.92;18.63;;;8.90;99.90;;;;;;5053730;28;20519;-91
2024/02/28 11:52:25;;;;;;;27.10;19.02;;;9.00;99.90;;;;;;5050716;28;20288;-92
2024/02/28 11:54:51;;;;;;;29.25;17.75;;;9.00;99.90;;;;;;5047134;28;20037;-91
2024/02/28 11:57:17;;;;;;;24.88;18.13;;;9.00;99.90;;;;;;5053675;28;20021;-92
2024/02/28 11:59:45;;;;;;;23.58;16.63;;;9.00;99.90;;;;;;5054936;28;20036;-91
2024/02/28 12:02:14;;;;;;;22.73;16.63;;;9.10;99.90;;;;;;5038327;28;20029;-90
2024/02/28 12:04:43;;;;;;;18.00;15.48;;;9.00;99.90;;;;;;5033061;28;20025;-94
2024/02/28 12:07:09;;;;;;;24.55;16.35;;;9.10;99.90;;;;;;5055109;28;20025;-91
2024/02/28 12:09:35;;;;;;;19.00;16.67;;;9.10;99.90;;;;;;5054161;28;20112;-92
2024/02/28 12:12:03;;;;;;;21.48;15.98;;;9.10;99.90;;;;;;5053486;28;20093;-92
2024/02/28 12:14:31;;;;;;;24.02;15.40;;;9.30;99.90;;;;;;5035800;28;20026;-91
2024/02/28 12:16:57;;;;;;;21.38;15.95;;;9.10;99.90;;;;;;5037435;28;20140;-91
2024/02/28 12:19:24;;;;;;;26.20;17.67;;;9.10;99.90;;;;;;5050402;28;20390;-92
2024/02/28 12:21:49;;;;;;;25.92;18.35;;;9.20;99.90;;;;;;5053793;28;20029;-92
2024/02/28 12:24:15;;;;;;;28.63;17.85;;;9.20;99.90;;;;;;5053241;28;20021;-93
2024/02/28 12:26:41;;;;;;;26.25;17.33;;;9.20;99.90;;;;;;5040701;28;20524;-95
2024/02/28 12:29:07;;;;;;;28.27;17.55;;;9.20;99.90;;;;;;5034549;28;20041;-92
2024/02/28 12:31:33;;;;;;;21.83;16.02;;;9.10;99.90;;;;;;5045197;28;20407;-92
2024/02/28 12:33:58;;;;;;;24.90;16.92;;;9.10;99.90;;;;;;5050991;28;20021;-92
2024/02/28 12:36:24;;;;;;;26.25;18.58;;;9.10;99.90;;;;;;5051419;28;20029;-94